createdAt,value
2022-10-05T00:00:20.852Z,87.87
2022-10-05T00:03:12.074Z,87.80
2022-10-05T00:05:40.238Z,87.78
2022-10-05T00:08:15.651Z,87.79
2022-10-05T00:10:45.391Z,87.63
2022-10-05T00:13:17.668Z,87.58
2022-10-05T00:15:45.752Z,87.58
2022-10-05T00:18:19.358Z,87.52
2022-10-05T00:20:48.744Z,87.64
2022-10-05T00:23:25.712Z,87.62
2022-10-05T00:25:53.395Z,87.73
2022-10-05T00:28:27.337Z,87.76
2022-10-05T00:30:58.836Z,87.65
2022-10-05T00:33:28.032Z,87.59
2022-10-05T00:35:55.892Z,87.44
2022-10-05T00:38:23.564Z,87.58
2022-10-05T00:40:59.922Z,87.55
2022-10-05T00:43:35.163Z,87.54
2022-10-05T00:46:07.848Z,87.55
2022-10-05T00:49:03.465Z,87.57
2022-10-05T00:51:37.156Z,87.59
2022-10-05T00:54:38.815Z,87.70
2022-10-05T00:57:18.370Z,87.78
2022-10-05T00:59:54.132Z,87.79
2022-10-05T01:02:46.852Z,87.82
2022-10-05T01:05:23.811Z,87.87
2022-10-05T01:08:06.753Z,87.88
2022-10-05T01:10:43.960Z,87.74
2022-10-05T01:13:57.776Z,87.76
2022-10-05T01:16:41.680Z,87.86
2022-10-05T01:19:43.527Z,87.89
2022-10-05T01:22:52.074Z,87.92
2022-10-05T01:25:48.264Z,87.92
2022-10-05T01:28:26.398Z,87.82
2022-10-05T01:30:58.392Z,87.86
2022-10-05T01:33:34.092Z,87.87
2022-10-05T01:36:20.164Z,87.98
2022-10-05T01:38:50.295Z,87.90
2022-10-05T01:41:25.588Z,87.93
2022-10-05T01:44:03.419Z,87.94
2022-10-05T01:46:41.978Z,87.85
2022-10-05T01:49:34.276Z,88.12
2022-10-05T01:52:38.581Z,88.05
2022-10-05T01:55:18.399Z,88.01
2022-10-05T01:58:09.141Z,88.10
2022-10-05T02:01:00.487Z,87.95
2022-10-05T02:03:35.742Z,88.00
2022-10-05T02:06:13.290Z,87.87
2022-10-05T02:08:47.786Z,87.92
2022-10-05T02:11:15.763Z,87.86
2022-10-05T02:13:57.353Z,87.85
2022-10-05T02:16:36.960Z,87.78
2022-10-05T02:19:17.220Z,87.76
2022-10-05T02:21:49.206Z,87.72
2022-10-05T02:24:29.774Z,87.83
2022-10-05T02:26:59.062Z,87.92
2022-10-05T02:29:31.138Z,87.97
2022-10-05T02:32:11.289Z,88.01
2022-10-05T02:34:43.476Z,87.93
2022-10-05T02:37:29.225Z,87.93
2022-10-05T02:40:06.348Z,88.04
2022-10-05T02:43:06.414Z,88.08
2022-10-05T02:45:42.812Z,88.14
2022-10-05T02:48:43.063Z,88.06
2022-10-05T02:51:22.505Z,88.35
2022-10-05T02:54:15.721Z,88.32
2022-10-05T02:57:16.854Z,88.45
2022-10-05T02:59:53.142Z,88.44
2022-10-05T03:02:33.639Z,88.38
2022-10-05T03:05:16.542Z,88.47
2022-10-05T03:07:59.238Z,88.70
2022-10-05T03:10:29.213Z,88.49
2022-10-05T03:13:08.421Z,88.46
2022-10-05T03:15:38.858Z,88.44
2022-10-05T03:18:34.511Z,88.45
2022-10-05T03:21:18.051Z,88.54
2022-10-05T03:24:03.926Z,88.45
2022-10-05T03:26:59.296Z,88.59
2022-10-05T03:29:52.022Z,88.63
2022-10-05T03:32:40.330Z,88.68
2022-10-05T03:35:28.266Z,88.73
2022-10-05T03:38:07.941Z,88.74
2022-10-05T03:40:47.382Z,88.76
2022-10-05T03:43:27.005Z,88.86
2022-10-05T03:46:19.244Z,88.82
2022-10-05T03:49:02.770Z,88.89
2022-10-05T03:51:41.089Z,88.83
2022-10-05T03:54:25.373Z,88.73
2022-10-05T03:57:02.093Z,88.79
2022-10-05T03:59:35.690Z,88.77
2022-10-05T04:02:21.529Z,88.86
2022-10-05T04:04:57.239Z,88.87
2022-10-05T04:07:47.007Z,88.94
2022-10-05T04:10:27.978Z,88.92
2022-10-05T04:13:05.268Z,88.84
2022-10-05T04:15:46.107Z,88.91
2022-10-05T04:18:26.405Z,88.91
2022-10-05T04:21:00.111Z,88.88
2022-10-05T04:23:44.586Z,88.86
2022-10-05T04:26:34.782Z,88.81
2022-10-05T04:29:16.487Z,88.93
2022-10-05T04:31:46.901Z,88.91
2022-10-05T04:34:23.738Z,88.95
2022-10-05T04:37:03.094Z,88.96
2022-10-05T04:39:50.693Z,88.98
2022-10-05T04:42:37.707Z,88.92
2022-10-05T04:45:14.055Z,88.95
2022-10-05T04:48:00.485Z,89.03
2022-10-05T04:51:13.390Z,89.06
2022-10-05T04:53:59.179Z,89.15
2022-10-05T04:56:45.831Z,89.12
2022-10-05T04:59:34.645Z,89.16
2022-10-05T05:02:25.558Z,89.16
2022-10-05T05:05:16.449Z,89.14
2022-10-05T05:07:46.902Z,89.29
2022-10-05T05:11:02.591Z,89.26
2022-10-05T05:14:06.782Z,89.32
2022-10-05T05:16:41.418Z,89.32
2022-10-05T05:19:23.778Z,89.47
2022-10-05T05:22:23.762Z,89.56
2022-10-05T05:25:06.682Z,89.48
2022-10-05T05:27:38.517Z,89.48
2022-10-05T05:30:24.089Z,89.47
2022-10-05T05:33:07.502Z,89.46
2022-10-05T05:35:43.898Z,89.41
2022-10-05T05:38:17.291Z,89.36
2022-10-05T05:40:57.543Z,89.35
2022-10-05T05:43:30.840Z,89.19
2022-10-05T05:46:03.410Z,89.16
2022-10-05T05:48:38.643Z,89.17
2022-10-05T05:51:21.594Z,89.19
2022-10-05T05:53:53.842Z,89.06
2022-10-05T05:56:30.566Z,88.88
2022-10-05T05:59:06.506Z,88.85
2022-10-05T06:01:44.524Z,88.73
2022-10-05T06:04:38.642Z,88.74
2022-10-05T06:07:07.353Z,88.60
2022-10-05T06:09:52.090Z,88.59
2022-10-05T06:12:25.758Z,88.53
2022-10-05T06:15:02.055Z,88.44
2022-10-05T06:17:57.303Z,88.40
2022-10-05T06:20:33.337Z,88.28
2022-10-05T06:23:04.906Z,88.18
2022-10-05T06:25:50.373Z,87.99
2022-10-05T06:28:19.812Z,87.89
2022-10-05T06:31:09.011Z,87.79
2022-10-05T06:33:49.156Z,87.66
2022-10-05T06:36:28.030Z,87.57
2022-10-05T06:38:59.231Z,87.45
2022-10-05T06:41:39.614Z,87.44
2022-10-05T06:44:13.183Z,87.36
2022-10-05T06:46:52.530Z,87.03
2022-10-05T06:50:02.286Z,86.93
2022-10-05T06:52:51.867Z,86.76
2022-10-05T06:55:49.411Z,86.32
2022-10-05T06:58:20.975Z,86.16
2022-10-05T07:00:58.514Z,85.89
2022-10-05T07:03:47.926Z,85.79
2022-10-05T07:06:32.982Z,85.45
2022-10-05T07:09:48.528Z,85.13
2022-10-05T07:12:34.979Z,84.96
2022-10-05T07:15:26.398Z,84.66
2022-10-05T07:18:03.259Z,84.36
2022-10-05T07:20:52.577Z,84.20
2022-10-05T07:23:41.660Z,84.06
2022-10-05T07:26:38.403Z,83.78
2022-10-05T07:29:27.879Z,83.77
2022-10-05T07:32:09.216Z,83.58
2022-10-05T07:34:55.516Z,82.98
2022-10-05T07:37:57.895Z,82.62
2022-10-05T07:40:28.535Z,81.99
2022-10-05T07:43:40.246Z,81.49
2022-10-05T07:46:40.729Z,81.16
2022-10-05T07:49:26.739Z,81.10
2022-10-05T07:52:23.836Z,80.78
2022-10-05T07:55:26.758Z,80.66
2022-10-05T07:57:57.448Z,80.61
2022-10-05T08:00:43.282Z,80.63
2022-10-05T08:03:14.927Z,80.31
2022-10-05T08:05:47.013Z,80.36
2022-10-05T08:08:38.148Z,79.97
2022-10-05T08:11:19.289Z,79.40
2022-10-05T08:14:02.721Z,79.32
2022-10-05T08:16:35.328Z,79.24
2022-10-05T08:19:08.702Z,79.07
2022-10-05T08:21:41.508Z,78.63
2022-10-05T08:24:27.691Z,78.52
2022-10-05T08:27:02.188Z,78.48
2022-10-05T08:29:47.458Z,78.44
2022-10-05T08:32:21.131Z,78.08
2022-10-05T08:35:03.051Z,77.61
2022-10-05T08:37:37.372Z,77.49
2022-10-05T08:40:31.976Z,77.79
2022-10-05T08:43:14.503Z,77.49
2022-10-05T08:45:51.150Z,77.10
2022-10-05T08:48:47.482Z,76.93
2022-10-05T08:51:27.182Z,76.44
2022-10-05T08:54:19.156Z,76.20
2022-10-05T08:57:24.447Z,76.30
2022-10-05T09:00:18.822Z,76.19
2022-10-05T09:03:14.375Z,76.36
2022-10-05T09:06:00.623Z,76.28
2022-10-05T09:08:48.834Z,76.60
2022-10-05T09:11:33.263Z,76.93
2022-10-05T09:14:38.017Z,76.38
2022-10-05T09:17:17.619Z,76.43
2022-10-05T09:20:10.011Z,76.25
2022-10-05T09:22:54.870Z,76.05
2022-10-05T09:25:43.925Z,75.62
2022-10-05T09:28:24.521Z,75.16
2022-10-05T09:31:07.380Z,75.14
2022-10-05T09:34:17.664Z,74.51
2022-10-05T09:37:07.240Z,74.46
2022-10-05T09:39:37.972Z,74.60
2022-10-05T09:42:29.801Z,74.38
2022-10-05T09:45:21.041Z,73.84
2022-10-05T09:48:01.168Z,73.37
2022-10-05T09:50:37.970Z,73.47
2022-10-05T09:53:14.474Z,73.43
2022-10-05T09:55:47.848Z,73.17
2022-10-05T09:58:29.506Z,73.21
2022-10-05T10:01:29.236Z,72.89
2022-10-05T10:04:02.403Z,72.88
2022-10-05T10:07:05.185Z,72.46
2022-10-05T10:09:51.102Z,72.05
2022-10-05T10:12:52.648Z,72.20
2022-10-05T10:15:54.769Z,72.26
2022-10-05T10:18:46.013Z,71.37
2022-10-05T10:21:35.936Z,70.91
2022-10-05T10:24:33.778Z,71.03
2022-10-05T10:27:34.391Z,69.17
2022-10-05T10:30:10.981Z,70.49
2022-10-05T10:32:53.272Z,69.64
2022-10-05T10:35:35.906Z,69.05
2022-10-05T10:38:20.032Z,69.08
2022-10-05T10:41:08.579Z,68.22
2022-10-05T10:43:40.127Z,69.09
2022-10-05T10:46:34.049Z,68.80
2022-10-05T10:49:20.284Z,68.46
2022-10-05T10:52:25.028Z,68.48
2022-10-05T10:55:29.885Z,68.51
2022-10-05T10:58:18.955Z,67.47
2022-10-05T11:01:27.343Z,66.68
2022-10-05T11:04:04.261Z,67.14
2022-10-05T11:06:34.888Z,66.67
2022-10-05T11:09:47.668Z,67.38
2022-10-05T11:12:18.072Z,66.22
2022-10-05T11:15:13.793Z,65.86
2022-10-05T11:17:56.725Z,66.11
2022-10-05T11:21:02.716Z,65.73
2022-10-05T11:23:43.838Z,65.81
2022-10-05T11:26:41.327Z,65.52
2022-10-05T11:29:35.000Z,65.86
2022-10-05T11:32:21.602Z,66.15
2022-10-05T11:35:31.158Z,66.64
2022-10-05T11:38:33.922Z,66.25
2022-10-05T11:41:31.484Z,66.63
2022-10-05T11:44:06.155Z,66.91
2022-10-05T11:46:47.549Z,66.62
2022-10-05T11:49:25.006Z,66.39
2022-10-05T11:52:23.016Z,66.99
2022-10-05T11:55:12.062Z,67.64
2022-10-05T11:58:01.853Z,67.57
2022-10-05T12:00:42.254Z,67.12
2022-10-05T12:03:15.714Z,67.64
2022-10-05T12:06:09.549Z,67.17
2022-10-05T12:09:18.676Z,67.23
2022-10-05T12:12:15.818Z,67.62
2022-10-05T12:15:01.422Z,68.12
2022-10-05T12:18:01.330Z,68.43
2022-10-05T12:20:46.810Z,68.66
2022-10-05T12:23:33.629Z,68.63
2022-10-05T12:26:11.303Z,68.64
2022-10-05T12:28:47.910Z,68.44
2022-10-05T12:31:24.882Z,68.02
2022-10-05T12:34:40.982Z,68.03
2022-10-05T12:37:33.580Z,67.91
2022-10-05T12:40:29.208Z,68.12
2022-10-05T12:43:03.544Z,68.27
2022-10-05T12:46:02.833Z,68.19
2022-10-05T12:48:44.406Z,68.42
2022-10-05T12:51:19.543Z,68.09
2022-10-05T12:54:03.177Z,68.01
2022-10-05T12:56:42.725Z,67.99
2022-10-05T12:59:29.113Z,67.52
2022-10-05T13:02:31.103Z,67.87
2022-10-05T13:05:25.352Z,68.19
2022-10-05T13:07:58.933Z,67.79
2022-10-05T13:11:15.203Z,67.52
2022-10-05T13:14:02.525Z,67.67
2022-10-05T13:16:42.680Z,67.61
2022-10-05T13:19:39.545Z,67.70
2022-10-05T13:22:16.074Z,68.29
2022-10-05T13:25:23.295Z,68.43
2022-10-05T13:28:09.803Z,68.21
2022-10-05T13:30:42.000Z,68.30
2022-10-05T13:33:18.176Z,68.01
2022-10-05T13:36:01.607Z,68.14
2022-10-05T13:38:49.484Z,68.68
2022-10-05T13:41:48.851Z,68.80
2022-10-05T13:44:41.284Z,68.52
2022-10-05T13:47:22.563Z,69.22
2022-10-05T13:49:56.881Z,68.89
2022-10-05T13:52:33.668Z,69.16
2022-10-05T13:55:14.037Z,69.47
2022-10-05T13:57:51.811Z,69.51
2022-10-05T14:00:27.005Z,69.84
2022-10-05T14:02:57.935Z,70.38
2022-10-05T14:05:28.114Z,70.39
2022-10-05T14:08:02.522Z,70.44
2022-10-05T14:10:31.540Z,70.84
2022-10-05T14:13:01.223Z,71.16
2022-10-05T14:15:30.632Z,71.21
2022-10-05T14:17:59.017Z,71.33
2022-10-05T14:20:34.389Z,71.56
2022-10-05T14:23:03.336Z,71.45
2022-10-05T14:25:32.089Z,71.47
2022-10-05T14:28:02.044Z,71.76
2022-10-05T14:30:33.795Z,71.41
2022-10-05T14:33:04.408Z,71.56
2022-10-05T14:35:56.584Z,71.78
2022-10-05T14:38:50.562Z,72.10
2022-10-05T14:41:19.527Z,72.18
2022-10-05T14:44:25.001Z,72.25
2022-10-05T14:46:55.990Z,72.17
2022-10-05T14:49:24.394Z,72.27
2022-10-05T14:51:54.546Z,72.30
2022-10-05T14:54:41.383Z,72.32
2022-10-05T14:57:48.404Z,72.70
2022-10-05T15:00:18.741Z,73.02
2022-10-05T15:03:04.626Z,73.07
2022-10-05T15:05:53.632Z,73.30
2022-10-05T15:08:47.246Z,73.66
2022-10-05T15:11:30.596Z,73.67
2022-10-05T15:14:00.030Z,74.08
2022-10-05T15:16:33.244Z,73.89
2022-10-05T15:19:20.917Z,74.11
2022-10-05T15:21:55.118Z,74.30
2022-10-05T15:24:26.739Z,74.47
2022-10-05T15:27:00.899Z,74.54
2022-10-05T15:29:59.679Z,74.65
2022-10-05T15:33:00.406Z,74.78
2022-10-05T15:35:41.947Z,74.97
2022-10-05T15:38:21.470Z,75.21
2022-10-05T15:40:59.160Z,75.21
2022-10-05T15:43:41.733Z,75.39
2022-10-05T15:46:18.006Z,75.62
2022-10-05T15:49:20.194Z,75.72
2022-10-05T15:52:18.794Z,75.73
2022-10-05T15:55:04.538Z,75.54
2022-10-05T15:57:45.619Z,75.73
2022-10-05T16:00:17.712Z,75.65
2022-10-05T16:02:54.827Z,75.72
2022-10-05T16:06:02.391Z,75.94
2022-10-05T16:08:49.215Z,76.09
2022-10-05T16:11:42.670Z,76.42
2022-10-05T16:14:18.306Z,76.60
2022-10-05T16:17:00.251Z,76.44
2022-10-05T16:19:43.713Z,76.44
2022-10-05T16:22:24.067Z,76.42
2022-10-05T16:25:03.427Z,76.52
2022-10-05T16:28:05.255Z,76.50
2022-10-05T16:31:11.245Z,76.55
2022-10-05T16:33:52.917Z,76.68
2022-10-05T16:36:40.465Z,76.73
2022-10-05T16:39:35.115Z,76.86
2022-10-05T16:42:11.971Z,76.83
2022-10-05T16:44:59.866Z,76.79
2022-10-05T16:47:49.621Z,77.01
2022-10-05T16:50:37.970Z,76.87
2022-10-05T16:53:24.160Z,77.24
2022-10-05T16:56:01.935Z,77.27
2022-10-05T16:58:41.623Z,77.49
2022-10-05T17:01:42.522Z,77.22
2022-10-05T17:04:37.055Z,77.25
2022-10-05T17:07:25.046Z,77.39
2022-10-05T17:10:13.201Z,77.44
2022-10-05T17:13:08.024Z,77.51
2022-10-05T17:16:06.631Z,77.52
2022-10-05T17:18:55.731Z,77.50
2022-10-05T17:21:45.741Z,77.40
2022-10-05T17:24:19.633Z,77.45
2022-10-05T17:26:56.311Z,77.49
2022-10-05T17:29:42.737Z,77.68
2022-10-05T17:32:12.272Z,77.72
2022-10-05T17:35:02.438Z,77.77
2022-10-05T17:37:31.952Z,77.79
2022-10-05T17:39:59.606Z,77.94
2022-10-05T17:42:29.935Z,77.89
2022-10-05T17:45:20.404Z,77.93
2022-10-05T17:48:10.179Z,77.82
2022-10-05T17:51:01.077Z,77.69
2022-10-05T17:54:02.560Z,77.41
2022-10-05T17:56:33.897Z,77.08
2022-10-05T17:59:04.855Z,77.04
2022-10-05T18:01:33.910Z,76.93
2022-10-05T18:04:25.448Z,76.91
2022-10-05T18:07:05.906Z,76.84
2022-10-05T18:09:38.400Z,76.73
2022-10-05T18:12:10.011Z,76.64
2022-10-05T18:14:58.103Z,76.43
2022-10-05T18:18:34.514Z,76.21
2022-10-05T18:21:15.084Z,76.31
2022-10-05T18:23:52.982Z,76.17
2022-10-05T18:26:30.285Z,75.99
2022-10-05T18:30:06.667Z,75.98
2022-10-05T18:32:45.392Z,76.01
2022-10-05T18:35:18.832Z,75.98
2022-10-05T18:37:55.211Z,76.07
2022-10-05T18:40:54.179Z,76.18
2022-10-05T18:43:47.712Z,76.13
2022-10-05T19:00:11.330Z,76.85
2022-10-05T19:03:51.987Z,76.75
2022-10-05T19:07:29.369Z,76.82
2022-10-05T19:10:58.125Z,76.64
2022-10-05T19:14:37.604Z,76.58
2022-10-05T19:17:45.217Z,76.65
2022-10-05T19:21:22.798Z,76.65
2022-10-05T19:24:49.965Z,76.59
2022-10-05T19:28:27.496Z,76.59
2022-10-05T19:32:08.440Z,76.54
2022-10-05T19:35:46.654Z,76.54
2022-10-05T19:39:19.609Z,76.55
2022-10-05T19:42:51.477Z,76.63
2022-10-05T19:46:25.569Z,76.64
2022-10-05T19:49:55.504Z,76.52
2022-10-05T19:53:32.354Z,76.45
2022-10-05T19:57:22.289Z,76.41
2022-10-05T20:00:51.125Z,76.39
2022-10-05T20:04:22.466Z,76.58
2022-10-05T20:07:53.575Z,76.72
2022-10-05T20:11:25.099Z,76.53
2022-10-05T20:14:58.495Z,76.50
2022-10-05T20:18:26.670Z,76.50
2022-10-05T20:21:35.702Z,76.62
2022-10-05T20:25:13.495Z,76.44
2022-10-05T20:28:45.783Z,76.60
2022-10-05T20:32:13.442Z,76.82
2022-10-05T20:35:42.385Z,76.92
2022-10-05T20:39:15.556Z,77.17
2022-10-05T20:57:03.885Z,77.28
2022-10-05T21:00:34.103Z,77.28
2022-10-05T21:04:02.914Z,77.42
2022-10-05T21:07:31.471Z,77.44
2022-10-05T21:11:00.186Z,77.59
2022-10-05T21:14:29.129Z,77.71
2022-10-05T21:17:57.851Z,77.73
2022-10-05T21:38:38.147Z,78.31
2022-10-05T21:42:11.512Z,78.37
2022-10-05T21:45:40.225Z,78.57
2022-10-05T21:49:09.090Z,78.66
2022-10-05T21:52:36.672Z,78.88
2022-10-05T21:56:05.804Z,78.92
2022-10-05T21:59:34.453Z,79.01
2022-10-05T22:03:10.658Z,79.21
2022-10-05T22:06:39.346Z,79.48
2022-10-05T22:10:08.043Z,79.66
2022-10-05T22:13:39.810Z,79.83
2022-10-05T22:17:08.473Z,80.01
2022-10-05T22:20:37.479Z,80.14
2022-10-05T22:24:05.270Z,80.33
2022-10-05T22:27:35.183Z,80.46
2022-10-05T22:31:05.101Z,80.57
2022-10-05T22:34:35.396Z,80.72
2022-10-05T23:22:49.048Z,82.19
